sensor_id;sensor_type;location;lat;lon;timestamp;P1;durP1;ratioP1;P2;durP2;ratioP2
25057;SDS011;13057;50.978;11.034;2023-03-01T00:02:05;30.15;;;17.40;;
25057;SDS011;13057;50.978;11.034;2023-03-01T00:04:32;27.05;;;17.42;;
25057;SDS011;13057;50.978;11.034;2023-03-01T00:06:57;34.90;;;18.98;;
25057;SDS011;13057;50.978;11.034;2023-03-01T00:09:23;33.30;;;19.60;;
25057;SDS011;13057;50.978;11.034;2023-03-01T00:11:50;34.95;;;18.13;;
25057;SDS011;13057;50.978;11.034;2023-03-01T00:14:16;32.78;;;18.77;;
25057;SDS011;13057;50.978;11.034;2023-03-01T00:16:43;28.13;;;17.38;;
25057;SDS011;13057;50.978;11.034;2023-03-01T00:19:11;28.67;;;17.30;;
25057;SDS011;13057;50.978;11.034;2023-03-01T00:21:40;27.17;;;16.83;;
25057;SDS011;13057;50.978;11.034;2023-03-01T00:24:06;28.45;;;17.17;;
25057;SDS011;13057;50.978;11.034;2023-03-01T00:26:32;30.85;;;17.50;;
25057;SDS011;13057;50.978;11.034;2023-03-01T00:28:58;28.10;;;17.00;;
25057;SDS011;13057;50.978;11.034;2023-03-01T00:31:26;28.27;;;17.08;;
25057;SDS011;13057;50.978;11.034;2023-03-01T00:33:56;29.50;;;17.20;;
25057;SDS011;13057;50.978;11.034;2023-03-01T00:36:24;29.73;;;18.13;;
25057;SDS011;13057;50.978;11.034;2023-03-01T00:38:51;29.98;;;17.38;;
25057;SDS011;13057;50.978;11.034;2023-03-01T00:41:17;29.77;;;17.83;;
25057;SDS011;13057;50.978;11.034;2023-03-01T00:43:44;30.02;;;18.58;;
25057;SDS011;13057;50.978;11.034;2023-03-01T00:46:13;28.90;;;18.17;;
25057;SDS011;13057;50.978;11.034;2023-03-01T00:48:41;29.58;;;18.85;;
25057;SDS011;13057;50.978;11.034;2023-03-01T00:51:08;31.45;;;19.33;;
25057;SDS011;13057;50.978;11.034;2023-03-01T00:53:37;30.63;;;19.05;;
25057;SDS011;13057;50.978;11.034;2023-03-01T00:56:03;27.88;;;18.70;;
25057;SDS011;13057;50.978;11.034;2023-03-01T00:58:30;30.45;;;18.08;;
25057;SDS011;13057;50.978;11.034;2023-03-01T01:00:56;35.40;;;20.58;;
25057;SDS011;13057;50.978;11.034;2023-03-01T01:03:22;30.08;;;17.73;;
25057;SDS011;13057;50.978;11.034;2023-03-01T01:05:50;32.58;;;19.60;;
25057;SDS011;13057;50.978;11.034;2023-03-01T01:08:17;35.50;;;18.50;;
25057;SDS011;13057;50.978;11.034;2023-03-01T01:10:44;27.13;;;17.50;;
25057;SDS011;13057;50.978;11.034;2023-03-01T01:13:11;27.75;;;17.58;;
25057;SDS011;13057;50.978;11.034;2023-03-01T01:15:37;30.38;;;17.20;;
25057;SDS011;13057;50.978;11.034;2023-03-01T01:18:03;30.67;;;17.65;;
25057;SDS011;13057;50.978;11.034;2023-03-01T01:20:29;30.77;;;16.60;;
25057;SDS011;13057;50.978;11.034;2023-03-01T01:22:55;34.08;;;17.45;;
25057;SDS011;13057;50.978;11.034;2023-03-01T01:25:21;31.55;;;17.73;;
25057;SDS011;13057;50.978;11.034;2023-03-01T01:27:49;31.25;;;17.42;;
25057;SDS011;13057;50.978;11.034;2023-03-01T01:30:16;34.28;;;17.20;;
25057;SDS011;13057;50.978;11.034;2023-03-01T01:32:42;27.98;;;16.65;;
25057;SDS011;13057;50.978;11.034;2023-03-01T01:35:08;29.98;;;17.55;;
25057;SDS011;13057;50.978;11.034;2023-03-01T01:37:34;25.63;;;16.48;;
25057;SDS011;13057;50.978;11.034;2023-03-01T01:40:01;28.13;;;17.67;;
25057;SDS011;13057;50.978;11.034;2023-03-01T01:42:29;26.90;;;16.95;;
25057;SDS011;13057;50.978;11.034;2023-03-01T01:47:45;33.03;;;16.55;;
25057;SDS011;13057;50.978;11.034;2023-03-01T01:50:14;26.58;;;16.63;;
25057;SDS011;13057;50.978;11.034;2023-03-01T01:52:42;24.90;;;15.95;;
25057;SDS011;13057;50.978;11.034;2023-03-01T01:55:08;27.05;;;16.95;;
25057;SDS011;13057;50.978;11.034;2023-03-01T01:57:42;29.38;;;16.33;;
25057;SDS011;13057;50.978;11.034;2023-03-01T02:00:13;26.50;;;16.15;;
25057;SDS011;13057;50.978;11.034;2023-03-01T02:02:44;24.00;;;15.20;;
25057;SDS011;13057;50.978;11.034;2023-03-01T02:05:17;27.38;;;16.17;;
25057;SDS011;13057;50.978;11.034;2023-03-01T02:07:49;24.85;;;16.02;;
25057;SDS011;13057;50.978;11.034;2023-03-01T02:10:16;22.73;;;15.80;;
25057;SDS011;13057;50.978;11.034;2023-03-01T02:12:42;26.30;;;15.10;;
25057;SDS011;13057;50.978;11.034;2023-03-01T02:15:08;26.05;;;16.33;;
25057;SDS011;13057;50.978;11.034;2023-03-01T02:17:35;25.73;;;15.40;;
25057;SDS011;13057;50.978;11.034;2023-03-01T02:20:15;25.65;;;15.70;;
25057;SDS011;13057;50.978;11.034;2023-03-01T02:22:48;23.00;;;14.93;;
25057;SDS011;13057;50.978;11.034;2023-03-01T02:25:27;22.73;;;15.77;;
25057;SDS011;13057;50.978;11.034;2023-03-01T02:28:00;26.45;;;15.70;;
25057;SDS011;13057;50.978;11.034;2023-03-01T02:30:33;21.92;;;15.35;;
25057;SDS011;13057;50.978;11.034;2023-03-01T02:33:00;24.52;;;15.55;;
25057;SDS011;13057;50.978;11.034;2023-03-01T02:35:32;22.23;;;14.85;;
25057;SDS011;13057;50.978;11.034;2023-03-01T02:38:02;21.10;;;14.82;;
25057;SDS011;13057;50.978;11.034;2023-03-01T02:40:31;20.15;;;14.48;;
25057;SDS011;13057;50.978;11.034;2023-03-01T02:42:59;19.80;;;14.55;;
25057;SDS011;13057;50.978;11.034;2023-03-01T02:45:25;24.60;;;15.90;;
25057;SDS011;13057;50.978;11.034;2023-03-01T02:47:54;28.33;;;16.60;;
25057;SDS011;13057;50.978;11.034;2023-03-01T02:50:32;25.95;;;15.90;;
25057;SDS011;13057;50.978;11.034;2023-03-01T02:53:11;28.70;;;17.17;;
25057;SDS011;13057;50.978;11.034;2023-03-01T02:55:42;25.67;;;15.88;;
25057;SDS011;13057;50.978;11.034;2023-03-01T02:58:08;24.88;;;15.88;;
25057;SDS011;13057;50.978;11.034;2023-03-01T03:00:36;30.50;;;16.55;;
25057;SDS011;13057;50.978;11.034;2023-03-01T03:03:05;23.90;;;15.88;;
25057;SDS011;13057;50.978;11.034;2023-03-01T03:05:31;32.50;;;17.48;;
25057;SDS011;13057;50.978;11.034;2023-03-01T03:07:58;23.90;;;15.57;;
25057;SDS011;13057;50.978;11.034;2023-03-01T03:10:28;25.15;;;16.08;;
25057;SDS011;13057;50.978;11.034;2023-03-01T03:12:57;26.20;;;16.00;;
25057;SDS011;13057;50.978;11.034;2023-03-01T03:15:25;25.48;;;15.80;;
25057;SDS011;13057;50.978;11.034;2023-03-01T03:17:52;29.80;;;16.85;;
25057;SDS011;13057;50.978;11.034;2023-03-01T03:20:20;24.42;;;16.02;;
25057;SDS011;13057;50.978;11.034;2023-03-01T03:22:48;28.15;;;16.33;;
25057;SDS011;13057;50.978;11.034;2023-03-01T03:25:16;29.35;;;17.00;;
25057;SDS011;13057;50.978;11.034;2023-03-01T03:27:43;23.00;;;15.48;;
25057;SDS011;13057;50.978;11.034;2023-03-01T03:30:14;24.95;;;16.25;;
25057;SDS011;13057;50.978;11.034;2023-03-01T03:32:45;22.58;;;15.60;;
25057;SDS011;13057;50.978;11.034;2023-03-01T03:35:20;25.95;;;16.65;;
25057;SDS011;13057;50.978;11.034;2023-03-01T03:37:51;25.90;;;16.48;;
25057;SDS011;13057;50.978;11.034;2023-03-01T03:40:27;25.15;;;16.08;;
25057;SDS011;13057;50.978;11.034;2023-03-01T03:42:56;23.35;;;16.40;;
25057;SDS011;13057;50.978;11.034;2023-03-01T03:45:22;30.13;;;16.92;;
25057;SDS011;13057;50.978;11.034;2023-03-01T03:47:48;26.25;;;17.02;;
25057;SDS011;13057;50.978;11.034;2023-03-01T03:50:15;25.23;;;16.58;;
25057;SDS011;13057;50.978;11.034;2023-03-01T03:52:41;25.70;;;16.70;;
25057;SDS011;13057;50.978;11.034;2023-03-01T03:55:08;25.85;;;16.50;;
25057;SDS011;13057;50.978;11.034;2023-03-01T03:57:36;25.42;;;15.50;;
25057;SDS011;13057;50.978;11.034;2023-03-01T04:00:03;26.55;;;17.05;;
25057;SDS011;13057;50.978;11.034;2023-03-01T04:02:31;26.45;;;16.70;;
25057;SDS011;13057;50.978;11.034;2023-03-01T04:04:57;23.10;;;16.38;;
25057;SDS011;13057;50.978;11.034;2023-03-01T04:07:23;27.60;;;17.95;;
25057;SDS011;13057;50.978;11.034;2023-03-01T04:09:48;25.08;;;17.13;;
25057;SDS011;13057;50.978;11.034;2023-03-01T04:12:14;25.02;;;16.15;;
25057;SDS011;13057;50.978;11.034;2023-03-01T04:14:45;25.08;;;16.70;;
25057;SDS011;13057;50.978;11.034;2023-03-01T04:17:11;24.52;;;15.95;;
25057;SDS011;13057;50.978;11.034;2023-03-01T04:19:37;28.08;;;16.80;;
25057;SDS011;13057;50.978;11.034;2023-03-01T04:22:03;25.88;;;17.33;;
25057;SDS011;13057;50.978;11.034;2023-03-01T04:24:34;24.85;;;16.60;;
25057;SDS011;13057;50.978;11.034;2023-03-01T04:27:01;25.83;;;17.25;;
25057;SDS011;13057;50.978;11.034;2023-03-01T04:29:27;26.30;;;16.95;;
25057;SDS011;13057;50.978;11.034;2023-03-01T04:31:53;26.92;;;16.48;;
25057;SDS011;13057;50.978;11.034;2023-03-01T04:34:19;30.23;;;17.67;;
25057;SDS011;13057;50.978;11.034;2023-03-01T04:36:45;29.75;;;17.00;;
25057;SDS011;13057;50.978;11.034;2023-03-01T04:39:11;28.73;;;17.17;;
25057;SDS011;13057;50.978;11.034;2023-03-01T04:41:37;27.30;;;16.92;;
25057;SDS011;13057;50.978;11.034;2023-03-01T04:44:05;28.20;;;17.23;;
25057;SDS011;13057;50.978;11.034;2023-03-01T04:46:31;26.45;;;16.35;;
25057;SDS011;13057;50.978;11.034;2023-03-01T04:48:57;28.15;;;18.13;;
25057;SDS011;13057;50.978;11.034;2023-03-01T04:51:23;27.10;;;16.25;;
25057;SDS011;13057;50.978;11.034;2023-03-01T04:53:49;26.30;;;16.15;;
25057;SDS011;13057;50.978;11.034;2023-03-01T04:56:15;24.50;;;16.27;;
25057;SDS011;13057;50.978;11.034;2023-03-01T04:58:43;23.83;;;15.60;;
25057;SDS011;13057;50.978;11.034;2023-03-01T05:01:11;25.60;;;16.50;;
25057;SDS011;13057;50.978;11.034;2023-03-01T05:03:43;25.27;;;16.17;;
25057;SDS011;13057;50.978;11.034;2023-03-01T05:06:10;26.38;;;15.73;;
25057;SDS011;13057;50.978;11.034;2023-03-01T05:08:37;26.52;;;15.82;;
25057;SDS011;13057;50.978;11.034;2023-03-01T05:11:04;28.33;;;16.73;;
25057;SDS011;13057;50.978;11.034;2023-03-01T05:13:30;25.73;;;15.77;;
25057;SDS011;13057;50.978;11.034;2023-03-01T05:15:57;24.58;;;15.85;;
25057;SDS011;13057;50.978;11.034;2023-03-01T05:18:25;26.45;;;16.23;;
25057;SDS011;13057;50.978;11.034;2023-03-01T05:20:53;25.38;;;15.48;;
25057;SDS011;13057;50.978;11.034;2023-03-01T05:23:21;28.85;;;16.65;;
25057;SDS011;13057;50.978;11.034;2023-03-01T05:25:48;33.65;;;17.30;;
25057;SDS011;13057;50.978;11.034;2023-03-01T05:28:17;26.08;;;16.52;;
25057;SDS011;13057;50.978;11.034;2023-03-01T05:30:44;28.17;;;17.55;;
25057;SDS011;13057;50.978;11.034;2023-03-01T05:33:11;26.60;;;16.80;;
25057;SDS011;13057;50.978;11.034;2023-03-01T05:35:40;59.60;;;19.55;;
25057;SDS011;13057;50.978;11.034;2023-03-01T05:38:07;26.05;;;16.05;;
25057;SDS011;13057;50.978;11.034;2023-03-01T05:40:34;27.60;;;17.55;;
25057;SDS011;13057;50.978;11.034;2023-03-01T05:43:00;27.38;;;16.88;;
25057;SDS011;13057;50.978;11.034;2023-03-01T05:45:27;24.65;;;15.52;;
25057;SDS011;13057;50.978;11.034;2023-03-01T05:47:53;30.25;;;16.88;;
25057;SDS011;13057;50.978;11.034;2023-03-01T05:50:24;24.38;;;15.27;;
25057;SDS011;13057;50.978;11.034;2023-03-01T05:52:56;29.15;;;16.75;;
25057;SDS011;13057;50.978;11.034;2023-03-01T05:55:24;26.63;;;16.27;;
25057;SDS011;13057;50.978;11.034;2023-03-01T05:57:51;24.20;;;16.40;;
25057;SDS011;13057;50.978;11.034;2023-03-01T06:00:17;26.50;;;16.77;;
25057;SDS011;13057;50.978;11.034;2023-03-01T06:02:45;25.50;;;16.98;;
25057;SDS011;13057;50.978;11.034;2023-03-01T06:05:11;27.23;;;17.08;;
25057;SDS011;13057;50.978;11.034;2023-03-01T06:07:38;25.23;;;16.30;;
25057;SDS011;13057;50.978;11.034;2023-03-01T06:10:05;23.10;;;15.35;;
25057;SDS011;13057;50.978;11.034;2023-03-01T06:12:33;29.45;;;17.02;;
25057;SDS011;13057;50.978;11.034;2023-03-01T06:15:00;25.02;;;16.90;;
25057;SDS011;13057;50.978;11.034;2023-03-01T06:17:29;28.40;;;17.25;;
25057;SDS011;13057;50.978;11.034;2023-03-01T06:19:56;28.52;;;17.10;;
25057;SDS011;13057;50.978;11.034;2023-03-01T06:22:22;28.88;;;17.08;;
25057;SDS011;13057;50.978;11.034;2023-03-01T06:24:48;24.67;;;16.35;;
25057;SDS011;13057;50.978;11.034;2023-03-01T06:27:14;27.38;;;16.80;;
25057;SDS011;13057;50.978;11.034;2023-03-01T06:29:40;25.33;;;16.88;;
25057;SDS011;13057;50.978;11.034;2023-03-01T06:32:06;24.35;;;16.27;;
25057;SDS011;13057;50.978;11.034;2023-03-01T06:34:33;27.35;;;16.20;;
25057;SDS011;13057;50.978;11.034;2023-03-01T06:36:59;27.02;;;16.05;;
25057;SDS011;13057;50.978;11.034;2023-03-01T06:39:24;26.17;;;15.70;;
25057;SDS011;13057;50.978;11.034;2023-03-01T06:41:53;29.30;;;17.63;;
25057;SDS011;13057;50.978;11.034;2023-03-01T06:44:18;23.30;;;16.02;;
25057;SDS011;13057;50.978;11.034;2023-03-01T06:46:44;27.92;;;16.08;;
25057;SDS011;13057;50.978;11.034;2023-03-01T06:49:10;28.35;;;17.13;;
25057;SDS011;13057;50.978;11.034;2023-03-01T06:51:36;28.95;;;16.27;;
25057;SDS011;13057;50.978;11.034;2023-03-01T06:54:03;69.20;;;42.85;;
25057;SDS011;13057;50.978;11.034;2023-03-01T06:56:29;33.28;;;20.17;;
25057;SDS011;13057;50.978;11.034;2023-03-01T06:58:56;28.20;;;16.08;;
25057;SDS011;13057;50.978;11.034;2023-03-01T07:01:22;32.88;;;15.85;;
25057;SDS011;13057;50.978;11.034;2023-03-01T07:03:48;25.75;;;16.38;;
25057;SDS011;13057;50.978;11.034;2023-03-01T07:06:14;31.20;;;17.27;;
25057;SDS011;13057;50.978;11.034;2023-03-01T07:08:40;28.15;;;17.42;;
25057;SDS011;13057;50.978;11.034;2023-03-01T07:11:05;37.53;;;20.75;;
25057;SDS011;13057;50.978;11.034;2023-03-01T07:13:32;30.55;;;18.45;;
25057;SDS011;13057;50.978;11.034;2023-03-01T07:15:58;29.88;;;17.80;;
25057;SDS011;13057;50.978;11.034;2023-03-01T07:18:23;25.55;;;17.45;;
25057;SDS011;13057;50.978;11.034;2023-03-01T07:20:49;27.58;;;17.33;;
25057;SDS011;13057;50.978;11.034;2023-03-01T07:23:15;30.67;;;17.35;;
25057;SDS011;13057;50.978;11.034;2023-03-01T07:25:41;27.20;;;16.80;;
25057;SDS011;13057;50.978;11.034;2023-03-01T07:28:07;28.70;;;17.80;;
25057;SDS011;13057;50.978;11.034;2023-03-01T07:30:33;28.77;;;17.95;;
25057;SDS011;13057;50.978;11.034;2023-03-01T07:32:59;27.98;;;18.08;;
25057;SDS011;13057;50.978;11.034;2023-03-01T07:35:26;29.05;;;17.40;;
25057;SDS011;13057;50.978;11.034;2023-03-01T07:37:52;28.48;;;17.77;;
25057;SDS011;13057;50.978;11.034;2023-03-01T07:40:18;28.60;;;17.67;;
25057;SDS011;13057;50.978;11.034;2023-03-01T07:42:45;40.35;;;17.90;;
25057;SDS011;13057;50.978;11.034;2023-03-01T07:45:11;26.33;;;17.55;;
25057;SDS011;13057;50.978;11.034;2023-03-01T07:47:38;26.25;;;17.35;;
25057;SDS011;13057;50.978;11.034;2023-03-01T07:50:04;27.73;;;17.10;;
25057;SDS011;13057;50.978;11.034;2023-03-01T07:52:31;27.25;;;17.05;;
25057;SDS011;13057;50.978;11.034;2023-03-01T07:54:59;30.08;;;18.13;;
25057;SDS011;13057;50.978;11.034;2023-03-01T07:57:25;49.05;;;24.50;;
25057;SDS011;13057;50.978;11.034;2023-03-01T07:59:51;29.05;;;15.98;;
25057;SDS011;13057;50.978;11.034;2023-03-01T08:02:20;24.52;;;15.60;;
25057;SDS011;13057;50.978;11.034;2023-03-01T08:04:46;26.80;;;16.17;;
25057;SDS011;13057;50.978;11.034;2023-03-01T08:07:12;21.27;;;15.20;;
25057;SDS011;13057;50.978;11.034;2023-03-01T08:09:38;22.92;;;15.10;;
25057;SDS011;13057;50.978;11.034;2023-03-01T08:12:04;26.38;;;15.30;;
25057;SDS011;13057;50.978;11.034;2023-03-01T08:14:31;26.60;;;14.02;;
25057;SDS011;13057;50.978;11.034;2023-03-01T08:16:57;24.98;;;15.70;;
25057;SDS011;13057;50.978;11.034;2023-03-01T08:19:25;22.38;;;14.80;;
25057;SDS011;13057;50.978;11.034;2023-03-01T08:22:11;24.80;;;15.82;;
25057;SDS011;13057;50.978;11.034;2023-03-01T08:25:05;26.38;;;15.00;;
25057;SDS011;13057;50.978;11.034;2023-03-01T08:27:32;21.17;;;14.57;;
25057;SDS011;13057;50.978;11.034;2023-03-01T08:29:58;20.60;;;13.70;;
25057;SDS011;13057;50.978;11.034;2023-03-01T08:32:23;23.70;;;14.85;;
25057;SDS011;13057;50.978;11.034;2023-03-01T08:34:49;23.17;;;14.55;;
25057;SDS011;13057;50.978;11.034;2023-03-01T08:37:15;18.23;;;12.88;;
25057;SDS011;13057;50.978;11.034;2023-03-01T08:39:41;23.90;;;13.85;;
25057;SDS011;13057;50.978;11.034;2023-03-01T08:42:07;20.92;;;14.48;;
25057;SDS011;13057;50.978;11.034;2023-03-01T08:44:32;22.70;;;13.40;;
25057;SDS011;13057;50.978;11.034;2023-03-01T08:47:00;18.80;;;13.50;;
25057;SDS011;13057;50.978;11.034;2023-03-01T08:49:27;20.02;;;14.05;;
25057;SDS011;13057;50.978;11.034;2023-03-01T08:51:53;19.02;;;12.77;;
25057;SDS011;13057;50.978;11.034;2023-03-01T08:54:20;18.15;;;13.05;;
25057;SDS011;13057;50.978;11.034;2023-03-01T08:56:48;21.17;;;13.50;;
25057;SDS011;13057;50.978;11.034;2023-03-01T08:59:14;22.13;;;13.43;;
25057;SDS011;13057;50.978;11.034;2023-03-01T09:01:42;21.17;;;14.35;;
25057;SDS011;13057;50.978;11.034;2023-03-01T09:04:09;21.52;;;14.68;;
25057;SDS011;13057;50.978;11.034;2023-03-01T09:06:36;23.73;;;15.05;;
25057;SDS011;13057;50.978;11.034;2023-03-01T09:09:03;28.42;;;18.25;;
25057;SDS011;13057;50.978;11.034;2023-03-01T09:11:29;23.52;;;15.38;;
25057;SDS011;13057;50.978;11.034;2023-03-01T09:13:55;22.15;;;14.85;;
25057;SDS011;13057;50.978;11.034;2023-03-01T09:16:23;21.25;;;14.77;;
25057;SDS011;13057;50.978;11.034;2023-03-01T09:18:50;24.58;;;14.57;;
25057;SDS011;13057;50.978;11.034;2023-03-01T09:21:17;26.05;;;14.77;;
25057;SDS011;13057;50.978;11.034;2023-03-01T09:23:46;23.15;;;14.18;;
25057;SDS011;13057;50.978;11.034;2023-03-01T09:26:14;20.45;;;13.52;;
25057;SDS011;13057;50.978;11.034;2023-03-01T09:28:41;20.95;;;13.73;;
25057;SDS011;13057;50.978;11.034;2023-03-01T09:31:08;23.13;;;13.82;;
25057;SDS011;13057;50.978;11.034;2023-03-01T09:33:34;26.50;;;14.35;;
25057;SDS011;13057;50.978;11.034;2023-03-01T09:36:01;21.73;;;13.60;;
25057;SDS011;13057;50.978;11.034;2023-03-01T09:38:29;22.30;;;14.68;;
25057;SDS011;13057;50.978;11.034;2023-03-01T09:40:55;22.02;;;13.50;;
25057;SDS011;13057;50.978;11.034;2023-03-01T09:43:25;23.13;;;13.88;;
25057;SDS011;13057;50.978;11.034;2023-03-01T09:46:00;18.48;;;11.88;;
25057;SDS011;13057;50.978;11.034;2023-03-01T09:48:33;20.90;;;12.52;;
25057;SDS011;13057;50.978;11.034;2023-03-01T09:51:07;21.95;;;13.48;;
25057;SDS011;13057;50.978;11.034;2023-03-01T09:53:40;16.90;;;12.05;;
25057;SDS011;13057;50.978;11.034;2023-03-01T09:56:12;17.60;;;11.77;;
25057;SDS011;13057;50.978;11.034;2023-03-01T09:58:47;18.30;;;12.27;;
25057;SDS011;13057;50.978;11.034;2023-03-01T10:01:26;22.25;;;13.45;;
25057;SDS011;13057;50.978;11.034;2023-03-01T10:04:04;19.15;;;12.52;;
25057;SDS011;13057;50.978;11.034;2023-03-01T10:06:44;22.08;;;13.23;;
25057;SDS011;13057;50.978;11.034;2023-03-01T10:09:23;21.02;;;13.43;;
25057;SDS011;13057;50.978;11.034;2023-03-01T10:11:50;20.00;;;12.20;;
25057;SDS011;13057;50.978;11.034;2023-03-01T10:17:04;19.83;;;11.95;;
25057;SDS011;13057;50.978;11.034;2023-03-01T10:19:42;20.25;;;12.15;;
25057;SDS011;13057;50.978;11.034;2023-03-01T10:22:13;17.27;;;12.60;;
25057;SDS011;13057;50.978;11.034;2023-03-01T10:24:42;21.77;;;12.68;;
25057;SDS011;13057;50.978;11.034;2023-03-01T10:27:14;19.27;;;12.13;;
25057;SDS011;13057;50.978;11.034;2023-03-01T10:29:52;24.08;;;12.90;;
25057;SDS011;13057;50.978;11.034;2023-03-01T10:32:26;20.45;;;12.93;;
25057;SDS011;13057;50.978;11.034;2023-03-01T10:34:52;20.08;;;12.57;;
25057;SDS011;13057;50.978;11.034;2023-03-01T10:37:19;21.77;;;12.63;;
25057;SDS011;13057;50.978;11.034;2023-03-01T10:39:56;21.20;;;12.27;;
25057;SDS011;13057;50.978;11.034;2023-03-01T10:42:34;18.58;;;11.50;;
25057;SDS011;13057;50.978;11.034;2023-03-01T10:45:36;18.83;;;12.18;;
25057;SDS011;13057;50.978;11.034;2023-03-01T10:48:03;21.95;;;11.60;;
25057;SDS011;13057;50.978;11.034;2023-03-01T10:50:39;17.88;;;11.13;;
25057;SDS011;13057;50.978;11.034;2023-03-01T10:53:18;23.05;;;12.88;;
25057;SDS011;13057;50.978;11.034;2023-03-01T10:55:56;18.98;;;11.82;;
25057;SDS011;13057;50.978;11.034;2023-03-01T10:58:31;16.95;;;11.98;;
25057;SDS011;13057;50.978;11.034;2023-03-01T11:01:03;19.88;;;12.13;;
25057;SDS011;13057;50.978;11.034;2023-03-01T11:03:32;17.80;;;11.15;;
25057;SDS011;13057;50.978;11.034;2023-03-01T11:06:02;21.73;;;12.65;;
25057;SDS011;13057;50.978;11.034;2023-03-01T11:08:47;19.30;;;12.35;;
25057;SDS011;13057;50.978;11.034;2023-03-01T11:11:20;15.95;;;11.38;;
25057;SDS011;13057;50.978;11.034;2023-03-01T11:13:51;21.10;;;11.88;;
25057;SDS011;13057;50.978;11.034;2023-03-01T11:16:24;19.15;;;12.30;;
25057;SDS011;13057;50.978;11.034;2023-03-01T11:19:13;18.98;;;12.30;;
25057;SDS011;13057;50.978;11.034;2023-03-01T11:21:46;23.15;;;11.18;;
25057;SDS011;13057;50.978;11.034;2023-03-01T11:24:18;20.90;;;11.40;;
25057;SDS011;13057;50.978;11.034;2023-03-01T11:26:47;19.85;;;11.48;;
25057;SDS011;13057;50.978;11.034;2023-03-01T11:29:25;17.90;;;11.90;;
25057;SDS011;13057;50.978;11.034;2023-03-01T11:31:57;19.80;;;11.98;;
25057;SDS011;13057;50.978;11.034;2023-03-01T11:34:36;17.70;;;11.40;;
25057;SDS011;13057;50.978;11.034;2023-03-01T11:37:21;18.45;;;11.95;;
25057;SDS011;13057;50.978;11.034;2023-03-01T11:42:48;17.23;;;11.23;;
25057;SDS011;13057;50.978;11.034;2023-03-01T11:45:23;20.10;;;13.25;;
25057;SDS011;13057;50.978;11.034;2023-03-01T11:50:50;23.60;;;12.05;;
25057;SDS011;13057;50.978;11.034;2023-03-01T11:53:23;19.52;;;12.77;;
25057;SDS011;13057;50.978;11.034;2023-03-01T11:56:03;21.42;;;12.82;;
25057;SDS011;13057;50.978;11.034;2023-03-01T11:58:55;20.83;;;12.53;;
25057;SDS011;13057;50.978;11.034;2023-03-01T12:01:43;17.60;;;11.63;;
25057;SDS011;13057;50.978;11.034;2023-03-01T12:07:29;20.83;;;12.75;;
25057;SDS011;13057;50.978;11.034;2023-03-01T12:12:50;16.55;;;11.38;;
25057;SDS011;13057;50.978;11.034;2023-03-01T12:15:35;19.02;;;12.07;;
25057;SDS011;13057;50.978;11.034;2023-03-01T12:18:20;15.18;;;10.27;;
25057;SDS011;13057;50.978;11.034;2023-03-01T12:21:06;17.92;;;11.15;;
25057;SDS011;13057;50.978;11.034;2023-03-01T12:23:50;18.02;;;11.57;;
25057;SDS011;13057;50.978;11.034;2023-03-01T12:26:31;18.70;;;11.30;;
25057;SDS011;13057;50.978;11.034;2023-03-01T12:29:07;22.52;;;15.35;;
25057;SDS011;13057;50.978;11.034;2023-03-01T12:31:53;18.42;;;11.77;;
25057;SDS011;13057;50.978;11.034;2023-03-01T12:34:41;19.75;;;13.15;;
25057;SDS011;13057;50.978;11.034;2023-03-01T12:37:24;20.08;;;12.82;;
25057;SDS011;13057;50.978;11.034;2023-03-01T12:40:10;18.52;;;11.07;;
25057;SDS011;13057;50.978;11.034;2023-03-01T12:43:06;18.67;;;11.65;;
25057;SDS011;13057;50.978;11.034;2023-03-01T12:45:51;22.05;;;11.68;;
25057;SDS011;13057;50.978;11.034;2023-03-01T12:48:31;17.20;;;11.38;;
25057;SDS011;13057;50.978;11.034;2023-03-01T12:51:08;18.65;;;11.82;;
25057;SDS011;13057;50.978;11.034;2023-03-01T12:53:42;22.42;;;12.23;;
25057;SDS011;13057;50.978;11.034;2023-03-01T12:56:15;19.15;;;12.50;;
25057;SDS011;13057;50.978;11.034;2023-03-01T12:58:51;18.17;;;10.93;;
25057;SDS011;13057;50.978;11.034;2023-03-01T13:01:42;21.55;;;11.88;;
25057;SDS011;13057;50.978;11.034;2023-03-01T13:07:21;20.58;;;12.18;;
25057;SDS011;13057;50.978;11.034;2023-03-01T13:10:04;21.10;;;12.55;;
25057;SDS011;13057;50.978;11.034;2023-03-01T13:12:46;21.23;;;12.93;;
25057;SDS011;13057;50.978;11.034;2023-03-01T13:15:30;17.13;;;9.23;;
25057;SDS011;13057;50.978;11.034;2023-03-01T13:17:59;19.63;;;11.57;;
25057;SDS011;13057;50.978;11.034;2023-03-01T13:20:30;16.50;;;11.18;;
25057;SDS011;13057;50.978;11.034;2023-03-01T13:23:00;19.40;;;11.95;;
25057;SDS011;13057;50.978;11.034;2023-03-01T13:25:30;19.83;;;11.25;;
25057;SDS011;13057;50.978;11.034;2023-03-01T13:30:46;19.83;;;10.65;;
25057;SDS011;13057;50.978;11.034;2023-03-01T13:36:05;18.92;;;11.48;;
25057;SDS011;13057;50.978;11.034;2023-03-01T13:38:44;19.77;;;11.27;;
25057;SDS011;13057;50.978;11.034;2023-03-01T13:41:14;16.30;;;10.50;;
25057;SDS011;13057;50.978;11.034;2023-03-01T13:43:41;17.73;;;11.23;;
25057;SDS011;13057;50.978;11.034;2023-03-01T13:46:11;17.80;;;11.35;;
25057;SDS011;13057;50.978;11.034;2023-03-01T13:48:44;25.92;;;12.65;;
25057;SDS011;13057;50.978;11.034;2023-03-01T13:51:12;22.25;;;12.75;;
25057;SDS011;13057;50.978;11.034;2023-03-01T13:53:40;21.55;;;12.00;;
25057;SDS011;13057;50.978;11.034;2023-03-01T13:56:12;20.20;;;13.60;;
25057;SDS011;13057;50.978;11.034;2023-03-01T13:58:51;20.50;;;11.60;;
25057;SDS011;13057;50.978;11.034;2023-03-01T14:01:26;18.55;;;11.88;;
25057;SDS011;13057;50.978;11.034;2023-03-01T14:03:55;19.83;;;12.23;;
25057;SDS011;13057;50.978;11.034;2023-03-01T14:06:24;19.48;;;13.07;;
25057;SDS011;13057;50.978;11.034;2023-03-01T14:11:56;19.02;;;12.35;;
25057;SDS011;13057;50.978;11.034;2023-03-01T14:14:42;18.48;;;11.90;;
25057;SDS011;13057;50.978;11.034;2023-03-01T14:17:25;20.90;;;12.30;;
25057;SDS011;13057;50.978;11.034;2023-03-01T14:20:12;21.98;;;11.90;;
25057;SDS011;13057;50.978;11.034;2023-03-01T14:22:42;21.70;;;12.80;;
25057;SDS011;13057;50.978;11.034;2023-03-01T14:25:19;20.80;;;12.07;;
25057;SDS011;13057;50.978;11.034;2023-03-01T14:27:54;20.00;;;12.48;;
25057;SDS011;13057;50.978;11.034;2023-03-01T14:30:27;22.08;;;11.75;;
25057;SDS011;13057;50.978;11.034;2023-03-01T14:33:00;19.63;;;12.73;;
25057;SDS011;13057;50.978;11.034;2023-03-01T14:35:30;21.60;;;11.93;;
25057;SDS011;13057;50.978;11.034;2023-03-01T14:37:57;20.42;;;12.70;;
25057;SDS011;13057;50.978;11.034;2023-03-01T14:40:24;20.65;;;11.93;;
25057;SDS011;13057;50.978;11.034;2023-03-01T14:42:53;24.00;;;12.88;;
25057;SDS011;13057;50.978;11.034;2023-03-01T14:45:21;20.85;;;12.73;;
25057;SDS011;13057;50.978;11.034;2023-03-01T14:47:48;19.20;;;12.27;;
25057;SDS011;13057;50.978;11.034;2023-03-01T14:50:18;23.55;;;11.60;;
25057;SDS011;13057;50.978;11.034;2023-03-01T14:52:52;16.65;;;12.23;;
25057;SDS011;13057;50.978;11.034;2023-03-01T14:55:22;22.05;;;11.43;;